createdAt,value
2022-09-11T00:01:15.176Z,16.11
2022-09-11T00:03:43.229Z,16.24
2022-09-11T00:06:14.611Z,16.23
2022-09-11T00:08:43.006Z,16.17
2022-09-11T00:11:11.031Z,16.28
2022-09-11T00:13:40.138Z,16.21
2022-09-11T00:16:18.868Z,16.19
2022-09-11T00:18:46.773Z,16.12
2022-09-11T00:21:13.455Z,16.34
2022-09-11T00:23:40.198Z,16.27
2022-09-11T00:26:06.916Z,16.13
2022-09-11T00:28:34.419Z,16.19
2022-09-11T00:31:05.209Z,16.16
2022-09-11T00:33:33.384Z,16.20
2022-09-11T00:36:03.812Z,16.19
2022-09-11T00:38:33.017Z,16.15
2022-09-11T00:41:01.944Z,16.14
2022-09-11T00:44:04.653Z,16.23
2022-09-11T00:46:41.918Z,16.20
2022-09-11T00:49:15.868Z,16.21
2022-09-11T00:51:47.833Z,16.32
2022-09-11T00:54:18.166Z,16.44
2022-09-11T00:56:45.002Z,16.32
2022-09-11T00:59:25.106Z,16.14
2022-09-11T01:01:51.761Z,16.15
2022-09-11T01:04:41.780Z,16.13
2022-09-11T01:07:10.193Z,16.18
2022-09-11T01:09:37.095Z,16.13
2022-09-11T01:12:19.523Z,16.23
2022-09-11T01:15:28.243Z,16.21
2022-09-11T01:18:22.321Z,16.16
2022-09-11T01:21:02.092Z,15.80
2022-09-11T01:23:31.487Z,16.25
2022-09-11T01:26:22.741Z,16.28
2022-09-11T01:28:57.628Z,16.24
2022-09-11T01:31:30.550Z,16.03
2022-09-11T01:34:03.245Z,16.13
2022-09-11T01:36:34.857Z,16.06
2022-09-11T01:39:04.072Z,16.21
2022-09-11T01:41:32.689Z,16.15
2022-09-11T01:44:34.561Z,16.19
2022-09-11T01:47:05.145Z,16.24
2022-09-11T01:49:51.122Z,16.14
2022-09-11T01:52:24.326Z,16.24
2022-09-11T01:54:56.722Z,16.04
2022-09-11T01:57:35.775Z,16.31
2022-09-11T02:00:08.191Z,16.15
2022-09-11T02:02:46.952Z,16.22
2022-09-11T02:05:18.475Z,16.15
2022-09-11T02:07:55.766Z,16.23
2022-09-11T02:10:31.155Z,16.26
2022-09-11T02:13:03.064Z,16.20
2022-09-11T02:15:39.739Z,16.29
2022-09-11T02:18:16.909Z,16.29
2022-09-11T02:20:45.219Z,16.29
2022-09-11T02:23:11.829Z,16.25
2022-09-11T02:25:39.652Z,16.08
2022-09-11T02:28:06.282Z,16.20
2022-09-11T02:30:33.130Z,16.37
2022-09-11T02:32:59.888Z,16.12
2022-09-11T02:35:37.252Z,16.27
2022-09-11T02:38:25.232Z,16.36
2022-09-11T02:41:00.354Z,16.32
2022-09-11T02:43:42.574Z,16.33
2022-09-11T02:46:26.146Z,16.25
2022-09-11T02:49:09.033Z,16.34
2022-09-11T02:51:38.681Z,16.40
2022-09-11T02:54:23.332Z,16.43
2022-09-11T02:57:06.068Z,16.38
2022-09-11T02:59:38.973Z,16.31
2022-09-11T03:02:10.230Z,16.33
2022-09-11T03:04:37.208Z,16.19
2022-09-11T03:07:04.388Z,16.14
2022-09-11T03:09:31.276Z,16.12
2022-09-11T03:12:04.429Z,16.24
2022-09-11T03:14:35.837Z,16.32
2022-09-11T03:17:04.833Z,16.32
2022-09-11T03:19:31.949Z,16.39
2022-09-11T03:21:58.727Z,16.36
2022-09-11T03:24:26.343Z,16.39
2022-09-11T03:26:53.059Z,16.07
2022-09-11T03:29:19.717Z,16.20
2022-09-11T03:31:47.292Z,16.22
2022-09-11T03:34:14.510Z,16.23
2022-09-11T03:36:41.232Z,16.27
2022-09-11T03:39:07.875Z,16.27
2022-09-11T03:41:35.805Z,16.31
2022-09-11T03:44:04.879Z,16.27
2022-09-11T03:46:32.959Z,16.23
2022-09-11T03:48:59.782Z,16.30
2022-09-11T03:51:26.928Z,16.29
2022-09-11T03:53:54.055Z,16.15
2022-09-11T03:56:21.151Z,16.34
2022-09-11T03:58:48.922Z,16.19
2022-09-11T04:01:18.944Z,16.24
2022-09-11T04:03:46.098Z,16.25
2022-09-11T04:06:20.815Z,16.31
2022-09-11T04:08:47.527Z,16.28
2022-09-11T04:11:14.247Z,16.39
2022-09-11T04:13:42.126Z,16.40
2022-09-11T04:16:17.560Z,16.22
2022-09-11T04:18:47.501Z,16.26
2022-09-11T04:21:16.603Z,16.29
2022-09-11T04:23:45.625Z,16.06
2022-09-11T04:26:18.038Z,16.36
2022-09-11T04:28:47.578Z,16.25
2022-09-11T04:31:16.566Z,16.03
2022-09-11T04:33:44.221Z,16.23
2022-09-11T04:36:13.995Z,16.18
2022-09-11T04:38:41.896Z,15.80
2022-09-11T04:41:11.664Z,16.23
2022-09-11T04:43:40.233Z,16.09
2022-09-11T04:46:13.371Z,16.20
2022-09-11T04:48:52.912Z,16.43
2022-09-11T04:51:28.950Z,16.34
2022-09-11T04:53:57.800Z,16.25
2022-09-11T04:56:37.961Z,16.15
2022-09-11T04:59:26.875Z,16.20
2022-09-11T05:02:23.329Z,16.29
2022-09-11T05:04:54.728Z,16.20
2022-09-11T05:07:21.432Z,16.22
2022-09-11T05:09:50.672Z,16.32
2022-09-11T05:12:18.291Z,16.12
2022-09-11T05:14:46.134Z,16.20
2022-09-11T05:17:13.527Z,16.28
2022-09-11T05:19:42.055Z,15.96
2022-09-11T05:22:09.139Z,16.06
2022-09-11T05:24:39.380Z,16.15
2022-09-11T05:27:06.855Z,16.23
2022-09-11T05:29:39.107Z,16.22
2022-09-11T05:32:10.985Z,16.06
2022-09-11T05:34:37.574Z,16.20
2022-09-11T05:37:05.374Z,16.18
2022-09-11T05:39:37.773Z,16.14
2022-09-11T05:42:05.813Z,16.12
2022-09-11T05:44:37.194Z,16.01
2022-09-11T05:47:04.682Z,16.24
2022-09-11T05:49:31.609Z,16.26
2022-09-11T05:51:59.818Z,16.26
2022-09-11T05:54:27.396Z,16.07
2022-09-11T05:56:54.568Z,16.19
2022-09-11T05:59:27.081Z,16.32
2022-09-11T06:01:54.266Z,16.37
2022-09-11T06:04:32.117Z,16.17
2022-09-11T06:06:59.665Z,16.51
2022-09-11T06:09:27.767Z,16.44
2022-09-11T06:11:54.555Z,16.53
2022-09-11T06:14:21.962Z,16.59
2022-09-11T06:16:50.592Z,16.52
2022-09-11T06:19:17.349Z,16.63
2022-09-11T06:21:45.184Z,16.72
2022-09-11T06:24:22.589Z,16.67
2022-09-11T06:26:49.868Z,16.90
2022-09-11T06:29:19.428Z,16.34
2022-09-11T06:31:51.232Z,16.93
2022-09-11T06:34:21.534Z,16.93
2022-09-11T06:36:51.854Z,17.02
2022-09-11T06:39:23.076Z,17.12
2022-09-11T06:41:50.790Z,17.08
2022-09-11T06:44:20.126Z,17.07
2022-09-11T06:46:47.784Z,17.09
2022-09-11T06:49:14.594Z,17.24
2022-09-11T06:51:59.671Z,17.21
2022-09-11T06:54:27.331Z,17.20
2022-09-11T06:56:55.448Z,17.21
2022-09-11T06:59:23.876Z,17.15
2022-09-11T07:01:51.665Z,17.14
2022-09-11T07:04:18.581Z,16.90
2022-09-11T07:06:48.176Z,17.18
2022-09-11T07:09:15.843Z,17.31
2022-09-11T07:11:48.376Z,17.61
2022-09-11T07:14:21.026Z,17.72
2022-09-11T07:16:50.929Z,17.79
2022-09-11T07:19:19.068Z,18.17
2022-09-11T07:21:45.817Z,18.18
2022-09-11T07:24:12.708Z,18.23
2022-09-11T07:26:41.956Z,18.26
2022-09-11T07:29:14.576Z,18.03
2022-09-11T07:31:42.736Z,18.06
2022-09-11T07:34:10.930Z,18.17
2022-09-11T07:36:37.618Z,18.20
2022-09-11T07:39:08.035Z,18.24
2022-09-11T07:41:39.413Z,18.13
2022-09-11T07:44:15.265Z,18.35
2022-09-11T07:46:42.030Z,18.30
2022-09-11T07:49:11.218Z,18.41
2022-09-11T07:51:41.012Z,18.75
2022-09-11T07:54:09.850Z,18.91
2022-09-11T07:56:38.400Z,18.43
2022-09-11T07:59:08.634Z,18.15
2022-09-11T08:01:37.647Z,18.35
2022-09-11T08:04:08.061Z,18.45
2022-09-11T08:06:37.169Z,18.31
2022-09-11T08:09:10.681Z,18.49
2022-09-11T08:11:45.857Z,18.74
2022-09-11T08:14:13.661Z,18.77
2022-09-11T08:16:41.906Z,18.55
2022-09-11T08:19:14.577Z,18.63
2022-09-11T08:21:42.218Z,18.57
2022-09-11T08:24:12.633Z,18.88
2022-09-11T08:26:40.535Z,18.77
2022-09-11T08:29:07.219Z,18.86
2022-09-11T08:31:35.253Z,18.81
2022-09-11T08:34:03.608Z,18.56
2022-09-11T08:36:30.477Z,18.75
2022-09-11T08:39:02.767Z,18.68
2022-09-11T08:41:49.825Z,18.83
2022-09-11T08:44:38.526Z,19.11
2022-09-11T08:47:24.400Z,19.32
2022-09-11T08:50:01.490Z,19.43
2022-09-11T08:52:29.839Z,19.50
2022-09-11T08:54:59.300Z,19.28
2022-09-11T08:57:48.648Z,19.21
2022-09-11T09:00:27.606Z,19.19
2022-09-11T09:03:30.190Z,19.45
2022-09-11T09:06:15.985Z,20.14
2022-09-11T09:08:56.508Z,19.79
2022-09-11T09:11:40.400Z,20.05
2022-09-11T09:14:44.531Z,20.53
2022-09-11T09:17:14.823Z,20.93
2022-09-11T09:20:07.057Z,22.22
2022-09-11T09:22:53.207Z,23.44
2022-09-11T09:25:23.141Z,23.78
2022-09-11T09:28:02.091Z,23.65
2022-09-11T09:30:40.659Z,23.18
2022-09-11T09:33:52.497Z,22.62
2022-09-11T09:36:31.658Z,22.34
2022-09-11T09:39:00.078Z,22.07
2022-09-11T09:41:46.028Z,22.03
2022-09-11T09:44:23.025Z,22.01
2022-09-11T09:46:52.879Z,21.71
2022-09-11T09:49:27.774Z,21.25
2022-09-11T09:52:03.558Z,20.70
2022-09-11T09:54:36.299Z,20.43
2022-09-11T09:57:13.715Z,21.75
2022-09-11T09:59:46.072Z,23.26
2022-09-11T10:02:13.538Z,24.51
2022-09-11T10:04:40.633Z,25.27
2022-09-11T10:07:07.291Z,25.96
2022-09-11T10:09:34.270Z,26.11
2022-09-11T10:12:07.272Z,25.15
2022-09-11T10:14:58.124Z,24.81
2022-09-11T10:17:29.319Z,26.17
2022-09-11T10:20:19.649Z,26.42
2022-09-11T10:23:26.652Z,25.04
2022-09-11T10:25:54.437Z,23.76
2022-09-11T10:28:33.320Z,23.36
2022-09-11T10:31:04.957Z,23.01
2022-09-11T10:33:36.201Z,22.57
2022-09-11T10:36:06.470Z,22.21
2022-09-11T10:38:46.869Z,21.88
2022-09-11T10:41:13.792Z,21.65
2022-09-11T10:43:53.193Z,21.11
2022-09-11T10:46:19.742Z,20.90
2022-09-11T10:48:55.373Z,20.47
2022-09-11T10:51:24.680Z,20.38
2022-09-11T10:54:38.302Z,20.30
2022-09-11T10:57:20.118Z,20.07
2022-09-11T11:00:08.523Z,20.23
2022-09-11T11:02:39.841Z,20.56
2022-09-11T11:05:18.101Z,21.51
2022-09-11T11:08:06.233Z,22.52
2022-09-11T11:11:04.015Z,22.95
2022-09-11T11:13:46.937Z,22.89
2022-09-11T11:16:16.282Z,23.46
2022-09-11T11:18:52.121Z,23.79
2022-09-11T11:21:18.700Z,23.89
2022-09-11T11:23:54.199Z,24.06
2022-09-11T11:26:27.575Z,24.53
2022-09-11T11:29:03.285Z,25.02
2022-09-11T11:31:55.626Z,24.75
2022-09-11T11:34:37.511Z,24.94
2022-09-11T11:37:17.868Z,23.99
2022-09-11T11:40:23.415Z,23.33
2022-09-11T11:43:01.083Z,22.86
2022-09-11T11:45:52.383Z,22.90
2022-09-11T11:48:26.157Z,23.53
2022-09-11T11:51:17.466Z,24.17
2022-09-11T11:54:06.644Z,24.06
2022-09-11T11:57:05.482Z,23.20
2022-09-11T11:59:45.733Z,23.08
2022-09-11T12:02:29.279Z,23.18
2022-09-11T12:05:02.143Z,22.71
2022-09-11T12:07:34.113Z,23.18
2022-09-11T12:10:02.957Z,23.05
2022-09-11T12:12:33.876Z,22.91
2022-09-11T12:15:09.985Z,22.68
2022-09-11T12:17:39.817Z,22.78
2022-09-11T12:20:12.316Z,23.02
2022-09-11T12:22:48.568Z,23.02
2022-09-11T12:25:21.411Z,23.05
2022-09-11T12:27:53.371Z,23.08
2022-09-11T12:30:25.318Z,23.13
2022-09-11T12:32:55.340Z,23.17
2022-09-11T12:35:31.443Z,23.02
2022-09-11T12:38:14.463Z,23.08
2022-09-11T12:40:46.780Z,23.10
2022-09-11T12:43:28.295Z,23.20
2022-09-11T12:45:56.710Z,22.64
2022-09-11T12:48:38.713Z,22.89
2022-09-11T12:51:15.267Z,22.88
2022-09-11T12:53:47.133Z,22.76
2022-09-11T12:56:21.833Z,22.53
2022-09-11T12:58:57.667Z,22.46
2022-09-11T13:01:30.492Z,22.52
2022-09-11T13:04:12.729Z,22.73
2022-09-11T13:06:51.850Z,23.03
2022-09-11T13:09:21.438Z,23.32
2022-09-11T13:11:50.929Z,23.38
2022-09-11T13:14:30.208Z,23.60
2022-09-11T13:16:58.743Z,23.57
2022-09-11T13:19:34.084Z,24.01
2022-09-11T13:22:00.698Z,24.23
2022-09-11T13:24:32.544Z,24.54
2022-09-11T13:26:59.736Z,24.24
2022-09-11T13:29:30.439Z,25.02
2022-09-11T13:32:00.549Z,25.31
2022-09-11T13:34:29.533Z,26.11
2022-09-11T13:36:57.711Z,27.07
2022-09-11T13:39:26.693Z,27.06
2022-09-11T13:42:02.641Z,27.14
2022-09-11T13:44:42.610Z,27.13
2022-09-11T13:47:19.138Z,27.15
2022-09-11T13:49:47.896Z,26.81
2022-09-11T13:52:15.708Z,26.26
2022-09-11T13:55:12.303Z,26.38
2022-09-11T13:58:21.304Z,27.12
2022-09-11T14:00:50.488Z,26.73
2022-09-11T14:03:31.813Z,25.74
2022-09-11T14:06:15.093Z,25.14
2022-09-11T14:08:48.904Z,25.06
2022-09-11T14:11:26.062Z,24.40
2022-09-11T14:14:01.004Z,24.43
2022-09-11T14:16:35.660Z,24.86
2022-09-11T14:19:14.944Z,25.16
2022-09-11T14:21:48.082Z,24.94
2022-09-11T14:24:33.006Z,24.88
2022-09-11T14:27:01.868Z,24.44
2022-09-11T14:29:33.498Z,24.44
2022-09-11T14:32:28.345Z,24.51
2022-09-11T14:34:55.462Z,24.61
2022-09-11T14:37:23.845Z,24.54
2022-09-11T14:39:58.036Z,24.25
2022-09-11T14:42:30.960Z,24.33
2022-09-11T14:44:59.294Z,24.43
2022-09-11T14:47:28.715Z,24.63
2022-09-11T14:49:57.549Z,24.61
2022-09-11T14:52:27.160Z,24.35
2022-09-11T14:54:55.150Z,24.42
2022-09-11T14:57:24.613Z,24.46
2022-09-11T14:59:52.586Z,24.56
2022-09-11T15:02:21.943Z,24.27
2022-09-11T15:04:50.073Z,24.38
2022-09-11T15:07:18.797Z,24.47
2022-09-11T15:09:46.490Z,24.46
2022-09-11T15:12:14.486Z,24.49
2022-09-11T15:14:56.621Z,24.66
2022-09-11T15:17:25.348Z,24.48
2022-09-11T15:19:53.425Z,24.41
2022-09-11T15:22:20.864Z,24.60
2022-09-11T15:24:48.789Z,24.93
2022-09-11T15:27:17.340Z,24.93
2022-09-11T15:29:45.139Z,24.72
2022-09-11T15:32:14.547Z,24.32
2022-09-11T15:34:45.275Z,23.89
2022-09-11T15:37:12.104Z,23.54
2022-09-11T15:39:39.070Z,23.48
2022-09-11T15:42:07.625Z,23.58
2022-09-11T15:44:35.909Z,23.83
2022-09-11T15:47:04.371Z,23.97
2022-09-11T15:49:31.822Z,24.31
2022-09-11T15:52:00.379Z,24.30
2022-09-11T15:54:27.845Z,24.02
2022-09-11T15:56:54.624Z,23.70
2022-09-11T15:59:21.293Z,23.39
2022-09-11T16:01:48.775Z,23.10
2022-09-11T16:04:20.267Z,23.22
2022-09-11T16:06:48.471Z,23.23
2022-09-11T16:09:20.442Z,23.35
2022-09-11T16:11:56.857Z,23.17
2022-09-11T16:14:27.175Z,23.19
2022-09-11T16:16:56.720Z,23.11
2022-09-11T16:19:47.604Z,23.10
2022-09-11T16:22:14.445Z,23.10
2022-09-11T16:24:42.489Z,23.10
2022-09-11T16:27:10.353Z,23.00
2022-09-11T16:30:15.589Z,23.15
2022-09-11T16:32:34.093Z,22.94
2022-09-11T16:35:01.009Z,23.26
2022-09-11T16:37:28.474Z,25.10
2022-09-11T16:39:55.615Z,26.41
2022-09-11T16:42:22.368Z,26.98
2022-09-11T16:44:50.133Z,27.37
2022-09-11T16:47:17.574Z,27.73
2022-09-11T16:50:06.017Z,27.70
2022-09-11T16:52:32.249Z,27.70
2022-09-11T16:54:59.492Z,27.79
2022-09-11T16:57:27.305Z,27.99
2022-09-11T16:59:54.294Z,28.00
2022-09-11T17:02:22.018Z,27.76
2022-09-11T17:04:48.713Z,27.42
2022-09-11T17:07:15.371Z,27.26
2022-09-11T17:09:48.395Z,26.95
2022-09-11T17:12:17.685Z,26.60
2022-09-11T17:14:44.434Z,26.41
2022-09-11T17:17:31.213Z,26.30
2022-09-11T17:19:59.363Z,26.23
2022-09-11T17:22:26.886Z,25.98
2022-09-11T17:24:54.075Z,24.71
2022-09-11T17:27:21.016Z,23.85
2022-09-11T17:30:21.648Z,22.87
2022-09-11T17:32:48.329Z,22.29
2022-09-11T17:35:15.203Z,21.76
2022-09-11T17:37:42.708Z,21.39
2022-09-11T17:40:10.002Z,21.08
2022-09-11T17:42:36.710Z,21.09
2022-09-11T17:45:03.812Z,21.12
2022-09-11T17:47:32.878Z,20.98
2022-09-11T17:50:03.185Z,20.74
2022-09-11T17:52:32.047Z,20.69
2022-09-11T17:54:58.697Z,20.49
2022-09-11T17:57:25.583Z,20.18
2022-09-11T17:59:53.035Z,20.04
2022-09-11T18:02:19.893Z,20.01
2022-09-11T18:04:49.741Z,19.88
2022-09-11T18:07:17.818Z,19.78
2022-09-11T18:09:45.454Z,19.94
2022-09-11T18:12:12.210Z,19.94
2022-09-11T18:14:39.872Z,19.85
2022-09-11T18:17:06.663Z,19.74
2022-09-11T18:19:33.304Z,19.68
2022-09-11T18:22:00.022Z,19.59
2022-09-11T18:24:29.802Z,19.42
2022-09-11T18:27:00.678Z,19.43
2022-09-11T18:29:35.289Z,19.16
2022-09-11T18:32:03.432Z,19.05
2022-09-11T18:34:31.156Z,18.74
2022-09-11T18:36:59.902Z,18.65
2022-09-11T18:39:27.409Z,18.50
2022-09-11T18:41:54.287Z,18.42
2022-09-11T18:44:25.203Z,18.43
2022-09-11T18:46:54.007Z,18.50
2022-09-11T18:49:21.403Z,18.57
2022-09-11T18:52:22.726Z,18.57
2022-09-11T18:54:52.685Z,18.38
2022-09-11T18:57:19.363Z,18.50
2022-09-11T18:59:46.274Z,18.40
2022-09-11T19:02:13.003Z,18.49
2022-09-11T19:04:39.986Z,18.33
2022-09-11T19:07:06.863Z,18.21
2022-09-11T19:09:33.583Z,18.03
2022-09-11T19:12:00.921Z,18.12
2022-09-11T19:14:27.841Z,17.98
2022-09-11T19:16:54.620Z,17.96
2022-09-11T19:19:21.445Z,17.76
2022-09-11T19:21:48.611Z,17.74
2022-09-11T19:24:15.308Z,17.63
2022-09-11T19:26:43.559Z,17.42
2022-09-11T19:29:13.275Z,17.26
2022-09-11T19:31:40.414Z,17.05
2022-09-11T19:34:11.718Z,17.29
2022-09-11T19:36:39.464Z,17.33
2022-09-11T19:39:06.358Z,17.16
2022-09-11T19:41:37.401Z,17.31
2022-09-11T19:44:06.961Z,17.36
2022-09-11T19:46:34.793Z,17.36
2022-09-11T19:49:03.571Z,17.29
2022-09-11T19:51:34.304Z,16.91
2022-09-11T19:54:04.608Z,17.08
2022-09-11T19:56:35.153Z,16.91
2022-09-11T19:59:02.354Z,16.55
2022-09-11T20:01:30.789Z,16.62
2022-09-11T20:04:00.398Z,16.53
2022-09-11T20:06:32.282Z,16.45
2022-09-11T20:09:20.221Z,16.00
2022-09-11T20:11:46.733Z,16.38
2022-09-11T20:14:13.524Z,16.44
2022-09-11T20:16:40.276Z,16.25
2022-09-11T20:19:06.997Z,16.47
2022-09-11T20:21:36.068Z,16.39
2022-09-11T20:24:05.140Z,16.01
2022-09-11T20:26:32.578Z,16.24
2022-09-11T20:29:07.489Z,16.14
2022-09-11T20:31:44.825Z,16.19
2022-09-11T20:34:17.526Z,16.17
2022-09-11T20:36:44.414Z,16.08
2022-09-11T20:39:13.655Z,16.06
2022-09-11T20:41:41.123Z,16.08
2022-09-11T20:44:07.928Z,16.06
2022-09-11T20:46:34.634Z,15.88
2022-09-11T20:49:02.959Z,15.64
2022-09-11T20:51:30.270Z,15.77
2022-09-11T20:53:57.115Z,15.81
2022-09-11T20:56:24.204Z,15.79
2022-09-11T20:58:51.874Z,15.86
2022-09-11T21:01:21.703Z,15.89
2022-09-11T21:03:51.712Z,15.84
2022-09-11T21:06:24.758Z,15.88
2022-09-11T21:08:57.824Z,15.66
2022-09-11T21:11:26.592Z,15.60
2022-09-11T21:13:53.654Z,15.50
2022-09-11T21:16:21.027Z,15.47
2022-09-11T21:18:51.118Z,15.24
2022-09-11T21:21:18.792Z,15.15
2022-09-11T21:23:48.841Z,15.01
2022-09-11T21:26:17.080Z,15.28
2022-09-11T21:28:44.301Z,15.23
2022-09-11T21:31:11.630Z,15.23
2022-09-11T21:33:39.203Z,15.07
2022-09-11T21:36:06.763Z,15.05
2022-09-11T21:38:33.487Z,15.08
2022-09-11T21:41:02.477Z,15.14
2022-09-11T21:43:29.682Z,15.03
2022-09-11T21:45:56.894Z,15.25
2022-09-11T21:48:23.646Z,15.23
2022-09-11T21:50:50.883Z,15.25
2022-09-11T21:53:17.673Z,15.05
2022-09-11T21:55:46.646Z,15.13
2022-09-11T21:58:16.460Z,15.04
2022-09-11T22:00:43.641Z,15.00
2022-09-11T22:03:14.229Z,14.97
2022-09-11T22:05:45.683Z,14.87
2022-09-11T22:08:14.880Z,14.68
2022-09-11T22:10:43.676Z,14.81
2022-09-11T22:13:10.644Z,14.72
2022-09-11T22:15:45.191Z,14.58
2022-09-11T22:18:12.192Z,14.23
2022-09-11T22:20:39.844Z,14.28
2022-09-11T22:23:07.154Z,14.10
2022-09-11T22:25:36.659Z,14.33
2022-09-11T22:28:04.681Z,14.28
2022-09-11T22:30:31.826Z,14.21
2022-09-11T22:32:59.739Z,14.06
2022-09-11T22:35:27.427Z,14.20
2022-09-11T22:37:54.135Z,14.27
2022-09-11T22:40:20.842Z,14.30
2022-09-11T22:42:47.567Z,14.29
2022-09-11T22:45:14.305Z,14.27
2022-09-11T22:47:41.209Z,14.50
2022-09-11T22:50:08.522Z,14.52
2022-09-11T22:52:37.231Z,14.53
2022-09-11T22:55:05.976Z,14.24
2022-09-11T22:57:35.139Z,13.75
2022-09-11T23:00:04.725Z,13.95
2022-09-11T23:02:31.381Z,14.08
2022-09-11T23:05:16.651Z,14.17
2022-09-11T23:07:43.577Z,14.11
2022-09-11T23:10:11.052Z,14.18
2022-09-11T23:12:37.689Z,13.82
2022-09-11T23:15:05.758Z,13.88
2022-09-11T23:17:33.441Z,13.88
2022-09-11T23:20:00.166Z,13.49
2022-09-11T23:22:27.421Z,13.88
2022-09-11T23:24:54.249Z,13.85
2022-09-11T23:27:20.917Z,13.58
2022-09-11T23:29:47.536Z,14.09
2022-09-11T23:32:14.198Z,14.01
2022-09-11T23:34:40.821Z,13.33
2022-09-11T23:37:07.447Z,13.83
2022-09-11T23:39:34.077Z,13.93
2022-09-11T23:42:00.697Z,13.86
2022-09-11T23:44:27.311Z,13.90
2022-09-11T23:46:54.110Z,13.76
2022-09-11T23:49:21.034Z,13.70
2022-09-11T23:51:49.016Z,13.70
2022-09-11T23:54:16.268Z,13.56
2022-09-11T23:56:43.128Z,13.53
2022-09-11T23:59:09.760Z,13.48
